Time;durP1;ratioP1;P1;durP2;ratioP2;P2;SDS_P1;SDS_P2;PMS_P1;PMS_P2;Temp;Humidity;BMP_temperature;BMP_pressure;BME280_temperature;BME280_humidity;BME280_pressure;Samples;Min_cycle;Max_cycle;Signal;HPM_P1;HPM_P2
2021/12/28 00:00:23;;;;;;;182.50;50.83;;;;;;;6.75;100.00;96387.50;5046192;28;20056;-64
2021/12/28 00:02:50;;;;;;;191.85;55.95;;;;;;;6.60;100.00;96349.06;5046513;28;20056;-70
2021/12/28 00:05:19;;;;;;;157.20;51.67;;;;;;;6.74;100.00;96372.19;5063533;28;20531;-70
2021/12/28 00:07:46;;;;;;;152.48;51.15;;;;;;;6.59;100.00;96375.78;5060023;28;20071;-70
2021/12/28 00:10:15;;;;;;;160.57;52.30;;;;;;;6.27;100.00;96333.03;5044108;28;20052;-63
2021/12/28 00:12:42;;;;;;;145.20;50.90;;;;;;;6.59;100.00;96395.03;5043992;28;20069;-69
2021/12/28 00:15:49;;;;;;;89.82;36.20;;;;;;;5.96;100.00;96305.63;5026017;28;20439;-70
2021/12/28 00:18:05;;;;;;;56.47;24.83;;;;;;;6.50;100.00;96380.69;5039927;28;20143;-69
2021/12/28 00:20:41;;;;;;;42.45;19.40;;;;;;;6.19;100.00;96375.28;5043973;28;20068;-63
2021/12/28 00:23:19;;;;;;;29.88;14.57;;;;;;;6.13;100.00;96374.75;5026328;28;20049;-66
2021/12/28 00:25:50;;;;;;;29.83;14.65;;;;;;;5.66;100.00;96334.72;5043962;28;20138;-67
2021/12/28 00:28:18;;;;;;;33.42;14.77;;;;;;;6.05;100.00;96396.97;5044013;28;20254;-64
2021/12/28 00:30:47;;;;;;;31.05;14.65;;;;;;;6.10;100.00;96410.44;5026273;28;20060;-70
2021/12/28 00:33:15;;;;;;;30.67;13.40;;;;;;;6.22;100.00;96407.56;5043729;28;20496;-70
2021/12/28 00:35:42;;;;;;;34.22;15.40;;;;;;;5.84;100.00;96355.22;5043858;28;20044;-70
2021/12/28 00:38:18;;;;;;;33.97;15.30;;;;;;;5.98;100.00;96374.78;5025588;28;20063;-69
2021/12/28 00:40:47;;;;;;;41.45;17.13;;;;;;;6.33;100.00;96403.09;5043316;28;20064;-64
2021/12/28 00:43:14;;;;;;;41.30;18.17;;;;;;;6.05;100.00;96385.97;5043833;28;20053;-69
2021/12/28 00:45:41;;;;;;;56.03;20.35;;;;;;;6.35;100.00;96411.81;5043637;28;20523;-69
2021/12/28 00:48:08;;;;;;;51.65;21.30;;;;;;;5.90;100.00;96331.78;5025496;28;20519;-64
2021/12/28 00:50:35;;;;;;;49.75;21.77;;;;;;;6.48;100.00;96404.22;5043562;28;20056;-66
2021/12/28 00:53:03;;;;;;;39.70;18.67;;;;;;;6.35;100.00;96384.31;5043796;28;20057;-68
2021/12/28 00:55:30;;;;;;;30.65;14.88;;;;;;;6.41;100.00;96387.56;5025961;28;20061;-69
2021/12/28 00:57:57;;;;;;;29.15;11.23;;;;;;;6.27;100.00;96355.03;5041964;28;20064;-64
2021/12/28 01:00:28;;;;;;;22.25;10.85;;;;;;;6.60;100.00;96407.66;5043494;28;20060;-69
2021/12/28 01:02:56;;;;;;;71.13;29.00;;;;;;;5.98;100.00;96306.06;5043236;28;20492;-63
2021/12/28 01:05:25;;;;;;;65.50;29.17;;;;;;;6.53;100.00;96418.47;5043294;28;20064;-70
2021/12/28 01:07:53;;;;;;;51.17;22.67;;;;;;;6.45;100.00;96411.22;5048389;28;20056;-70
2021/12/28 01:10:23;;;;;;;47.38;22.10;;;;;;;6.45;100.00;96411.22;5045578;28;20059;-70
2021/12/28 01:12:52;;;;;;;44.05;19.77;;;;;;;6.41;100.00;96415.88;5063271;28;20048;-70
2021/12/28 01:15:20;;;;;;;45.08;19.02;;;;;;;6.41;100.00;96410.38;5045091;28;20048;-65
2021/12/28 01:17:46;;;;;;;46.30;20.50;;;;;;;6.42;100.00;96400.94;5065821;28;20411;-70
2021/12/28 01:20:14;;;;;;;58.83;24.83;;;;;;;6.08;100.00;96363.25;5067112;28;20052;-70
2021/12/28 01:22:42;;;;;;;43.38;19.60;;;;;;;6.52;100.00;96405.09;5067324;28;20052;-65
2021/12/28 01:25:10;;;;;;;44.13;19.67;;;;;;;6.52;100.00;96405.09;5049149;28;20071;-64
2021/12/28 01:27:37;;;;;;;77.65;32.92;;;;;;;6.46;100.00;96404.59;5066319;28;20048;-62
2021/12/28 01:30:08;;;;;;;62.50;27.58;;;;;;;6.19;100.00;96367.03;5067627;28;20514;-71
2021/12/28 01:32:36;;;;;;;47.50;24.15;;;;;;;6.43;100.00;96408.06;5049333;28;20060;-62
2021/12/28 01:35:05;;;;;;;53.92;20.65;;;;;;;6.50;100.00;96399.94;5067313;28;20052;-64
2021/12/28 01:37:32;;;;;;;44.15;18.65;;;;;;;6.48;100.00;96396.75;5065473;28;20044;-64
2021/12/28 01:39:59;;;;;;;111.65;39.60;;;;;;;5.05;100.00;96226.53;5066949;28;20522;-70
2021/12/28 01:42:28;;;;;;;97.38;38.63;;;;;;;5.75;100.00;96332.59;5066799;28;20499;-72
2021/12/28 01:44:54;;;;;;;108.53;40.28;;;;;;;6.31;100.00;96388.91;5067427;28;20056;-63
2021/12/28 01:47:22;;;;;;;110.55;39.78;;;;;;;5.96;100.00;96344.09;5066605;28;20052;-70
2021/12/28 01:49:49;;;;;;;106.60;42.85;;;;;;;5.76;100.00;96317.69;5067265;28;20063;-69
2021/12/28 01:52:15;;;;;;;90.82;36.38;;;;;;;6.29;100.00;96396.75;5066597;28;20049;-63
2021/12/28 01:54:42;;;;;;;48.80;21.90;;;;;;;6.24;100.00;96386.00;5066555;28;20065;-69
2021/12/28 01:57:09;;;;;;;41.00;17.98;;;;;;;6.35;100.00;96373.31;5066988;28;20139;-70
2021/12/28 01:59:36;;;;;;;45.92;21.13;;;;;;;6.36;100.00;96371.31;5048469;28;20068;-62
2021/12/28 02:02:03;;;;;;;40.50;19.58;;;;;;;6.32;100.00;96371.28;5065047;28;20517;-64
2021/12/28 02:04:30;;;;;;;39.25;17.77;;;;;;;5.56;100.00;96294.06;5066677;28;20053;-63
2021/12/28 02:07:02;;;;;;;26.95;13.20;;;;;;;6.30;100.00;96370.81;5066363;28;20060;-69
2021/12/28 02:09:28;;;;;;;18.77;8.02;;;;;;;6.08;100.00;96341.25;5048943;28;20076;-62
2021/12/28 02:11:55;;;;;;;19.67;8.43;;;;;;;6.28;100.00;96359.38;5046087;28;20531;-69
2021/12/28 02:14:24;;;;;;;33.70;14.48;;;;;;;6.03;100.00;96367.06;5047167;28;20474;-69
2021/12/28 02:16:51;;;;;;;50.58;22.42;;;;;;;5.94;100.00;96346.44;5047010;28;20053;-62
2021/12/28 02:19:19;;;;;;;46.78;19.98;;;;;;;6.01;100.00;96369.38;5047075;28;20057;-62
2021/12/28 02:21:46;;;;;;;47.05;23.42;;;;;;;5.90;100.00;96362.03;5046173;28;20543;-69
2021/12/28 02:24:13;;;;;;;49.72;20.23;;;;;;;6.04;100.00;96378.84;5046367;28;20057;-62
2021/12/28 02:26:40;;;;;;;44.63;20.55;;;;;;;5.78;100.00;96364.84;5046046;28;20049;-68
2021/12/28 02:29:07;;;;;;;56.35;25.42;;;;;;;5.77;100.00;96363.28;5046005;28;20067;-69
2021/12/28 02:31:34;;;;;;;50.28;21.25;;;;;;;5.93;100.00;96384.09;5044535;28;20444;-63
2021/12/28 02:34:02;;;;;;;42.63;19.60;;;;;;;5.50;100.00;96304.53;5046392;28;20136;-62
2021/12/28 02:36:29;;;;;;;44.95;18.08;;;;;;;5.92;100.00;96370.72;5046086;28;20312;-63
2021/12/28 02:38:56;;;;;;;61.55;23.20;;;;;;;6.01;100.00;96374.06;5046501;28;20063;-62
2021/12/28 02:41:23;;;;;;;103.82;33.47;;;;;;;6.09;100.00;96370.34;5045447;28;20056;-63
2021/12/28 02:43:50;;;;;;;94.30;25.08;;;;;;;6.02;100.00;96370.19;5027646;28;20049;-69
2021/12/28 02:46:16;;;;;;;117.25;26.27;;;;;;;6.05;100.00;96385.97;5045979;28;20056;-69
2021/12/28 02:48:44;;;;;;;109.65;22.95;;;;;;;5.96;100.00;96385.34;5045904;28;20491;-68
2021/12/28 02:51:14;;;;;;;105.15;22.33;;;;;;;5.88;100.00;96381.63;5045520;28;20048;-63
2021/12/28 02:53:43;;;;;;;98.00;20.38;;;;;;;5.82;100.00;96376.75;5045507;28;20059;-63
2021/12/28 02:56:10;;;;;;;76.05;21.10;;;;;;;5.77;100.00;96382.50;5045642;28;20052;-63
2021/12/28 02:58:43;;;;;;;58.80;19.55;;;;;;;5.60;100.00;96369.91;5045593;28;20435;-69
2021/12/28 03:01:23;;;;;;;101.22;24.58;;;;;;;5.75;100.00;96377.34;5028005;28;20053;-69
2021/12/28 03:03:58;;;;;;;82.32;23.30;;;;;;;5.73;100.00;96378.88;5045690;28;20053;-69
2021/12/28 03:06:25;;;;;;;88.55;28.13;;;;;;;5.71;100.00;96381.97;5028082;28;20059;-63
2021/12/28 03:08:56;;;;;;;58.65;24.33;;;;;;;5.74;100.00;96385.94;5058445;28;20048;-63
2021/12/28 03:11:25;;;;;;;60.03;24.00;;;;;;;5.58;100.00;96374.19;5065019;28;20054;-69
2021/12/28 03:13:55;;;;;;;60.17;23.48;;;;;;;5.69;100.00;96394.47;5047429;28;20048;-63
2021/12/28 03:16:23;;;;;;;54.22;24.17;;;;;;;5.66;100.00;96384.16;5065599;28;20062;-69
2021/12/28 03:18:50;;;;;;;66.75;23.75;;;;;;;4.58;100.00;96224.56;5063680;28;20049;-64
2021/12/28 03:21:19;;;;;;;41.13;18.77;;;;;;;5.53;100.00;96393.66;5047365;28;20060;-69
2021/12/28 03:23:47;;;;;;;35.67;16.85;;;;;;;5.46;100.00;96374.25;5047057;28;20523;-63
2021/12/28 03:26:14;;;;;;;37.50;15.45;;;;;;;5.47;100.00;96386.84;5064950;28;20049;-69
2021/12/28 03:28:43;;;;;;;27.60;13.43;;;;;;;5.43;100.00;96358.47;5064848;28;20051;-64
2021/12/28 03:31:16;;;;;;;28.30;12.07;;;;;;;5.54;100.00;96387.00;5064909;28;20048;-68
2021/12/28 03:33:45;;;;;;;23.90;10.77;;;;;;;5.35;100.00;96359.44;5065223;28;20052;-63
2021/12/28 03:36:14;;;;;;;21.02;8.40;;;;;;;5.01;100.00;96318.97;5064856;28;20049;-69
2021/12/28 03:38:42;;;;;;;18.35;7.63;;;;;;;4.89;100.00;96316.28;5064266;28;20861;-64
2021/12/28 03:41:10;;;;;;;17.77;7.85;;;;;;;5.27;100.00;96360.41;5063922;28;20045;-64
2021/12/28 03:43:39;;;;;;;24.23;11.05;;;;;;;5.42;100.00;96381.63;5064858;28;20082;-63
2021/12/28 03:46:06;;;;;;;25.80;11.15;;;;;;;5.23;100.00;96351.31;5064618;28;20346;-69
2021/12/28 03:48:34;;;;;;;37.60;13.40;;;;;;;5.50;100.00;96380.66;5064421;28;20056;-64
2021/12/28 03:51:01;;;;;;;40.92;16.20;;;;;;;5.63;100.00;96384.88;5064775;28;20412;-69
2021/12/28 03:53:28;;;;;;;39.58;18.48;;;;;;;5.13;100.00;96285.94;5064690;28;20056;-69
2021/12/28 03:55:55;;;;;;;52.53;21.17;;;;;;;5.66;100.00;96378.66;5064822;28;20063;-69
2021/12/28 03:58:22;;;;;;;138.90;50.50;;;;;;;5.45;100.00;96367.19;5064476;28;20052;-69
2021/12/28 04:00:49;;;;;;;62.05;25.45;;;;;;;5.37;100.00;96377.19;5064362;28;20046;-63
2021/12/28 04:03:16;;;;;;;50.15;19.15;;;;;;;5.47;100.00;96397.84;5064647;28;20052;-64
2021/12/28 04:05:46;;;;;;;49.17;19.50;;;;;;;5.41;100.00;96397.28;5046842;28;20052;-69
2021/12/28 04:08:19;;;;;;;56.28;23.00;;;;;;;5.47;100.00;96397.84;5057606;28;20476;-69
2021/12/28 04:10:54;;;;;;;53.67;22.27;;;;;;;5.45;100.00;96400.13;5026469;28;20059;-69
2021/12/28 04:13:23;;;;;;;65.35;25.73;;;;;;;5.45;100.00;96406.44;5026588;28;20610;-63
2021/12/28 04:15:50;;;;;;;51.15;23.10;;;;;;;5.35;100.00;96400.63;5043803;28;20053;-70
2021/12/28 04:18:18;;;;;;;61.70;27.50;;;;;;;5.50;100.00;96402.63;5044085;28;20060;-65
2021/12/28 04:20:45;;;;;;;78.28;31.40;;;;;;;5.41;100.00;96382.75;5044037;28;20063;-64
2021/12/28 04:23:12;;;;;;;64.57;26.67;;;;;;;4.78;100.00;96271.28;5044315;28;20423;-69
2021/12/28 04:25:39;;;;;;;57.22;25.98;;;;;;;5.51;100.00;96382.22;5044243;28;20053;-68
2021/12/28 04:28:06;;;;;;;56.90;25.30;;;;;;;5.68;100.00;96387.38;5044146;28;20052;-69
2021/12/28 04:30:33;;;;;;;79.65;31.90;;;;;;;5.70;100.00;96394.13;5044117;28;20053;-64
2021/12/28 04:32:59;;;;;;;84.18;33.47;;;;;;;5.79;100.00;96408.47;5043830;28;20059;-64
2021/12/28 04:35:26;;;;;;;92.10;37.83;;;;;;;5.82;100.00;96398.72;5043824;28;20052;-65
2021/12/28 04:37:53;;;;;;;91.50;38.53;;;;;;;5.80;100.00;96396.31;5043768;28;20060;-68
2021/12/28 04:40:20;;;;;;;97.05;39.08;;;;;;;5.81;100.00;96399.88;5043545;28;20059;-63
2021/12/28 04:42:46;;;;;;;93.75;38.15;;;;;;;5.77;100.00;96393.50;5043481;28;20063;-69
2021/12/28 04:45:15;;;;;;;83.80;35.55;;;;;;;5.87;100.00;96417.72;5043541;28;20058;-64
2021/12/28 04:47:42;;;;;;;82.00;36.83;;;;;;;5.97;100.00;96419.94;5043741;28;20136;-63
2021/12/28 04:50:10;;;;;;;83.20;38.42;;;;;;;5.96;100.00;96421.06;5043148;28;20052;-63
2021/12/28 04:52:39;;;;;;;82.05;38.40;;;;;;;5.91;100.00;96419.38;5043841;28;20041;-64
2021/12/28 04:55:11;;;;;;;98.18;46.88;;;;;;;5.96;100.00;96416.38;5043379;28;20423;-69
2021/12/28 04:57:39;;;;;;;129.43;53.55;;;;;;;5.37;100.00;96315.97;5043375;28;20055;-63
2021/12/28 05:00:13;;;;;;;126.18;54.58;;;;;;;5.92;100.00;96409.19;5043163;28;20097;-69
2021/12/28 05:02:39;;;;;;;111.10;51.13;;;;;;;5.98;100.00;96416.81;5043345;28;20048;-68
2021/12/28 05:05:11;;;;;;;114.88;53.55;;;;;;;5.99;100.00;96414.88;5043472;28;20052;-69
2021/12/28 05:07:38;;;;;;;91.82;44.72;;;;;;;6.01;100.00;96407.06;5027017;28;20037;-69
2021/12/28 05:10:06;;;;;;;98.45;46.35;;;;;;;6.03;100.00;96421.25;5063090;28;20052;-65
2021/12/28 05:12:33;;;;;;;94.78;44.00;;;;;;;5.83;100.00;96383.88;5063245;28;20067;-69
2021/12/28 05:15:00;;;;;;;86.45;38.17;;;;;;;5.97;100.00;96406.19;5045355;28;20056;-69
2021/12/28 05:17:27;;;;;;;110.60;50.70;;;;;;;5.99;100.00;96406.63;5063456;28;20082;-64
2021/12/28 05:19:55;;;;;;;66.85;33.33;;;;;;;5.93;100.00;96402.53;5063668;28;20450;-64
2021/12/28 05:22:21;;;;;;;68.75;31.40;;;;;;;5.91;100.00;96405.66;5045439;28;20048;-67
2021/12/28 05:24:48;;;;;;;80.80;35.42;;;;;;;5.27;100.00;96306.31;5044974;28;20079;-64
2021/12/28 05:27:15;;;;;;;122.88;51.05;;;;;;;5.82;100.00;96429.78;5062944;28;20061;-63
2021/12/28 05:29:43;;;;;;;104.05;45.15;;;;;;;5.32;100.00;96376.63;5062655;28;20097;-69
2021/12/28 05:32:09;;;;;;;98.43;40.83;;;;;;;5.65;100.00;96424.59;5062366;28;20063;-63
2021/12/28 05:34:36;;;;;;;87.38;37.30;;;;;;;5.03;100.00;96316.63;5062713;28;20056;-64
2021/12/28 05:37:03;;;;;;;74.32;32.95;;;;;;;5.61;100.00;96425.66;5044965;28;20056;-67
2021/12/28 05:39:30;;;;;;;80.40;33.42;;;;;;;5.53;100.00;96412.91;5062946;28;20467;-65
2021/12/28 05:41:57;;;;;;;85.20;41.20;;;;;;;5.51;100.00;96420.69;5044953;28;20503;-69
2021/12/28 05:44:25;;;;;;;94.35;43.47;;;;;;;5.43;100.00;96402.41;5062903;28;20060;-65
2021/12/28 05:46:52;;;;;;;92.72;42.95;;;;;;;5.48;100.00;96416.72;5062677;28;20049;-64
2021/12/28 05:49:18;;;;;;;91.97;40.42;;;;;;;5.04;100.00;96367.66;5063395;28;20065;-64
2021/12/28 05:51:46;;;;;;;86.72;42.78;;;;;;;3.15;100.00;96062.47;5062888;28;20554;-69
2021/12/28 05:54:13;;;;;;;72.80;35.83;;;;;;;4.79;100.00;96344.22;5062755;28;20040;-69
2021/12/28 05:56:41;;;;;;;61.67;26.85;;;;;;;5.32;100.00;96423.31;5045237;28;20498;-69
2021/12/28 05:59:08;;;;;;;98.05;40.42;;;;;;;4.65;100.00;96322.69;5044946;28;20500;-69
2021/12/28 06:01:35;;;;;;;84.18;39.40;;;;;;;5.28;100.00;96436.94;5063009;28;20131;-64
2021/12/28 06:04:03;;;;;;;95.75;39.78;;;;;;;4.80;100.00;96406.97;5066411;28;20829;-69
2021/12/28 06:06:30;;;;;;;76.15;34.88;;;;;;;4.91;100.00;96401.78;5066424;28;20629;-65
2021/12/28 06:08:57;;;;;;;99.65;42.53;;;;;;;5.23;100.00;96450.13;5054534;28;20139;-64
2021/12/28 06:11:24;;;;;;;105.57;44.95;;;;;;;4.72;100.00;96371.44;5046554;28;20060;-68
2021/12/28 06:13:51;;;;;;;129.40;45.50;;;;;;;4.84;100.00;96409.81;5046254;28;20055;-64
2021/12/28 06:16:18;;;;;;;156.43;50.72;;;;;;;5.07;100.00;96454.78;5044954;28;20502;-63
2021/12/28 06:18:45;;;;;;;220.48;65.13;;;;;;;4.53;100.00;96375.66;5046105;28;20087;-69
2021/12/28 06:21:12;;;;;;;304.08;86.60;;;;;;;4.93;100.00;96470.84;5046600;28;20049;-63
2021/12/28 06:23:39;;;;;;;274.15;77.18;;;;;;;4.99;100.00;96458.47;5046584;28;20060;-64
2021/12/28 06:26:06;;;;;;;274.58;84.22;;;;;;;5.10;100.00;96465.06;5046052;28;20060;-63
2021/12/28 06:28:32;;;;;;;499.73;134.77;;;;;;;4.99;100.00;96469.44;5046068;28;20164;-69
2021/12/28 06:30:59;;;;;;;513.53;140.80;;;;;;;4.99;100.00;96480.41;5045452;28;20060;-71
2021/12/28 06:33:26;;;;;;;331.60;89.78;;;;;;;4.68;100.00;96413.28;5046034;28;20063;-70
2021/12/28 06:35:54;;;;;;;317.67;89.22;;;;;;;4.98;100.00;96473.34;5045443;28;20520;-69
2021/12/28 06:38:21;;;;;;;368.30;93.63;;;;;;;5.06;100.00;96469.66;5046034;28;20048;-70
2021/12/28 06:40:48;;;;;;;368.42;112.90;;;;;;;5.09;100.00;96475.22;5045814;28;20057;-65
2021/12/28 06:43:15;;;;;;;339.25;110.32;;;;;;;4.09;100.00;96352.00;5045579;28;20063;-65
2021/12/28 06:45:43;;;;;;;570.08;206.07;;;;;;;4.82;100.00;96437.59;5028089;28;20514;-71
2021/12/28 06:48:09;;;;;;;565.58;197.38;;;;;;;5.07;100.00;96482.22;5045954;28;20450;-69
2021/12/28 06:50:36;;;;;;;404.05;130.52;;;;;;;5.03;100.00;96481.31;5045558;28;20471;-64
2021/12/28 06:53:03;;;;;;;335.23;119.05;;;;;;;4.04;100.00;96319.38;5045700;28;20052;-65
2021/12/28 06:55:30;;;;;;;303.30;116.82;;;;;;;5.11;100.00;96483.09;5045733;28;20148;-70
2021/12/28 06:57:57;;;;;;;212.63;69.57;;;;;;;5.07;100.00;96493.19;5027988;28;20538;-65
2021/12/28 07:00:23;;;;;;;210.73;74.85;;;;;;;5.09;100.00;96482.69;5045364;28;20061;-64
2021/12/28 07:02:50;;;;;;;190.05;79.95;;;;;;;4.96;100.00;96481.13;5027389;28;20591;-64
2021/12/28 07:05:17;;;;;;;129.00;53.08;;;;;;;4.96;100.00;96481.13;5028319;28;20052;-65
2021/12/28 07:07:44;;;;;;;96.22;42.95;;;;;;;5.06;100.00;96475.16;5047180;28;20056;-68
2021/12/28 07:10:11;;;;;;;79.60;37.70;;;;;;;5.16;100.00;96480.13;5065038;28;20054;-69
2021/12/28 07:12:37;;;;;;;122.30;56.90;;;;;;;5.04;100.00;96444.50;5065431;28;20555;-64
2021/12/28 07:15:06;;;;;;;90.43;41.75;;;;;;;5.48;100.00;96476.31;5065096;28;20490;-68
2021/12/28 07:17:32;;;;;;;69.70;32.03;;;;;;;5.16;100.00;96419.72;5056276;28;20067;-72
2021/12/28 07:19:59;;;;;;;82.78;39.75;;;;;;;5.66;100.00;96472.88;5043995;28;20052;-72
2021/12/28 07:22:29;;;;;;;155.07;62.20;;;;;;;5.19;100.00;96386.88;5057280;28;20127;-72
2021/12/28 07:24:56;;;;;;;194.52;78.70;;;;;;;3.29;100.00;96090.22;5053052;28;20436;-69
2021/12/28 07:27:22;;;;;;;164.30;72.70;;;;;;;5.54;100.00;96409.00;5063527;28;20052;-70
2021/12/28 07:29:49;;;;;;;125.80;56.83;;;;;;;6.18;100.00;96467.16;5057035;28;20512;-67
2021/12/28 07:32:16;;;;;;;155.80;65.95;;;;;;;4.74;100.00;96276.72;5050990;28;20047;-72
2021/12/28 07:34:42;;;;;;;126.03;45.85;;;;;;;4.71;100.00;96276.59;5054224;28;20053;-65
2021/12/28 07:37:09;;;;;;;117.32;40.75;;;;;;;5.54;100.00;96406.25;5052846;28;20238;-67
2021/12/28 07:39:36;;;;;;;114.85;38.00;;;;;;;5.78;100.00;96430.81;5063958;28;20056;-67
2021/12/28 07:42:03;;;;;;;141.45;45.33;;;;;;;5.57;100.00;96391.78;5042671;28;20049;-64
2021/12/28 07:44:31;;;;;;;178.32;60.08;;;;;;;5.58;100.00;96393.41;5054257;28;20060;-69
2021/12/28 07:46:57;;;;;;;159.95;54.08;;;;;;;5.68;100.00;96431.31;5055994;28;20413;-69
2021/12/28 07:49:24;;;;;;;138.27;45.08;;;;;;;5.65;100.00;96388.06;5042211;28;20061;-59
2021/12/28 07:51:51;;;;;;;101.35;39.63;;;;;;;6.33;100.00;96469.13;5052276;28;20052;-64
2021/12/28 07:54:18;;;;;;;99.43;39.20;;;;;;;5.60;100.00;96325.16;5050149;28;20063;-66
2021/12/28 07:56:44;;;;;;;113.20;45.28;;;;;;;6.72;100.00;96492.03;5044797;28;20444;-69
2021/12/28 07:59:11;;;;;;;105.07;40.67;;;;;;;6.88;100.00;96452.28;5063586;28;20624;-65
2021/12/28 08:01:38;;;;;;;90.85;37.58;;;;;;;7.02;100.00;96462.78;5062823;28;20569;-64
2021/12/28 08:04:06;;;;;;;84.88;35.85;;;;;;;7.12;100.00;96479.56;5045279;28;20062;-67
2021/12/28 08:06:32;;;;;;;77.65;35.13;;;;;;;6.64;100.00;96358.19;5063316;28;20086;-62
2021/12/28 08:08:59;;;;;;;78.22;38.88;;;;;;;7.05;100.00;96391.28;5057816;28;20053;-62
2021/12/28 08:11:27;;;;;;;84.38;40.42;;;;;;;6.50;100.00;96262.41;5025479;28;20045;-63
2021/12/28 08:13:54;;;;;;;82.45;36.78;;;;;;;7.29;100.00;96368.94;5034047;28;20057;-64
2021/12/28 08:16:21;;;;;;;88.20;33.92;;;;;;;7.88;100.00;96425.47;5049172;28;20059;-67
2021/12/28 08:18:48;;;;;;;73.25;34.72;;;;;;;8.21;100.00;96470.59;5044502;28;20053;-66
2021/12/28 08:21:35;;;;;;;57.80;28.60;;;;;;;8.56;100.00;96451.06;5052177;28;20411;-67
2021/12/28 08:24:03;;;;;;;66.07;36.13;;;;;;;7.91;100.00;96328.25;5048528;28;20075;-66
2021/12/28 08:26:30;;;;;;;67.95;35.33;;;;;;;8.78;100.00;96428.13;5055365;28;20052;-68
2021/12/28 08:28:57;;;;;;;86.78;44.47;;;;;;;9.16;98.32;96460.97;5034910;28;20052;-62
2021/12/28 08:31:25;;;;;;;97.90;51.30;;;;;;;9.21;98.57;96438.56;5054452;28;20044;-74
2021/12/28 08:33:52;;;;;;;91.03;46.13;;;;;;;9.71;97.96;96454.53;5050364;28;20102;-63
2021/12/28 08:36:19;;;;;;;85.40;44.25;;;;;;;9.55;97.86;96404.19;5051566;28;20052;-70
2021/12/28 08:38:46;;;;;;;82.28;43.33;;;;;;;9.45;95.26;96352.38;5053260;28;20049;-64
2021/12/28 08:41:13;;;;;;;80.22;44.17;;;;;;;9.03;96.15;96260.75;5035559;28;20531;-66
2021/12/28 08:43:46;;;;;;;70.90;38.97;;;;;;;10.39;95.83;96435.44;5043618;28;20059;-66
2021/12/28 08:46:13;;;;;;;60.33;33.75;;;;;;;10.37;93.80;96393.50;5055378;28;20131;-64
2021/12/28 08:48:41;;;;;;;50.47;27.90;;;;;;;10.69;93.33;96438.03;5051998;28;20057;-63
2021/12/28 08:51:07;;;;;;;33.13;20.77;;;;;;;10.09;93.65;96326.88;5054158;28;20074;-72
2021/12/28 08:53:34;;;;;;;30.88;17.92;;;;;;;10.77;93.79;96406.41;5054528;28;20577;-64
2021/12/28 08:56:01;;;;;;;22.60;12.40;;;;;;;10.81;94.41;96428.59;5056471;28;20076;-66
2021/12/28 08:58:28;;;;;;;30.75;15.70;;;;;;;10.60;95.36;96385.75;5061177;28;20144;-70
2021/12/28 09:00:55;;;;;;;34.17;19.92;;;;;;;11.00;94.59;96425.53;5058557;28;20057;-65
2021/12/28 09:03:22;;;;;;;39.83;21.85;;;;;;;10.63;94.04;96335.13;5036191;28;20178;-67
2021/12/28 09:05:49;;;;;;;41.75;22.55;;;;;;;11.31;92.86;96413.81;5051555;28;20056;-69
2021/12/28 09:08:18;;;;;;;34.53;21.42;;;;;;;11.57;91.93;96410.75;5052991;28;20271;-63
2021/12/28 09:10:46;;;;;;;32.25;18.42;;;;;;;11.77;91.30;96423.09;5052237;28;20092;-68
2021/12/28 09:13:14;;;;;;;31.40;18.27;;;;;;;11.43;91.15;96360.78;5049477;28;20133;-65
2021/12/28 09:15:42;;;;;;;35.63;20.92;;;;;;;12.02;90.84;96410.06;5043042;28;20057;-65
2021/12/28 09:18:09;;;;;;;20.23;13.13;;;;;;;12.25;87.56;96407.69;5061800;28;20056;-64
2021/12/28 09:20:36;;;;;;;21.77;11.77;;;;;;;11.84;87.27;96364.81;5041074;28;20050;-70
2021/12/28 09:23:09;;;;;;;20.92;11.75;;;;;;;12.20;87.27;96383.13;5051312;28;20512;-69
2021/12/28 09:25:37;;;;;;;18.90;11.18;;;;;;;12.36;87.15;96402.91;5055751;28;20073;-66
2021/12/28 09:28:06;;;;;;;15.35;9.02;;;;;;;12.38;87.42;96395.00;5062927;28;20162;-70
2021/12/28 09:30:38;;;;;;;8.20;5.50;;;;;;;12.46;84.10;96385.47;5061993;28;20076;-67
2021/12/28 09:33:05;;;;;;;7.82;4.75;;;;;;;12.53;83.67;96354.91;5061433;28;20139;-65
2021/12/28 09:35:32;;;;;;;10.48;5.95;;;;;;;12.94;82.55;96394.91;5045210;28;20139;-64
2021/12/28 09:37:59;;;;;;;10.15;5.30;;;;;;;12.61;81.78;96342.59;5062916;28;20063;-71
2021/12/28 09:40:30;;;;;;;17.88;10.07;;;;;;;13.42;81.86;96384.81;5056234;28;20511;-64
2021/12/28 09:42:57;;;;;;;15.75;8.13;;;;;;;13.69;79.20;96429.59;5047331;28;20051;-71
2021/12/28 09:45:24;;;;;;;17.83;9.95;;;;;;;13.80;78.03;96385.03;5052116;28;20491;-62
2021/12/28 09:47:51;;;;;;;21.95;9.70;;;;;;;13.81;76.46;96342.84;5057551;28;20060;-67
2021/12/28 09:50:19;;;;;;;29.88;15.52;;;;;;;14.13;75.32;96368.47;5046448;28;20518;-66
2021/12/28 09:52:49;;;;;;;41.95;21.60;;;;;;;14.34;74.66;96387.03;5044977;28;20570;-67
2021/12/28 09:55:21;;;;;;;18.00;10.45;;;;;;;14.54;73.93;96358.19;5046891;28;20122;-65
2021/12/28 09:57:48;;;;;;;8.98;5.38;;;;;;;14.23;69.23;96330.59;5052553;28;20052;-72
2021/12/28 10:00:17;;;;;;;12.73;6.85;;;;;;;14.39;71.51;96367.09;5050394;28;20063;-67
2021/12/28 10:03:05;;;;;;;9.93;5.25;;;;;;;14.54;72.79;96343.47;5036130;28;20037;-68
2021/12/28 10:05:33;;;;;;;30.15;17.38;;;;;;;14.02;73.27;96241.66;5042506;28;20220;-71
2021/12/28 10:08:03;;;;;;;90.25;80.65;;;;;;;13.46;72.07;96154.69;5030563;28;20068;-71
2021/12/28 10:10:42;;;;;;;15.75;9.15;;;;;;;14.63;71.44;96343.78;5050367;28;20048;-61
2021/12/28 10:13:18;;;;;;;17.92;11.60;;;;;;;14.60;72.93;96344.59;5054993;28;20049;-67
2021/12/28 10:15:47;;;;;;;19.70;12.07;;;;;;;14.56;73.03;96338.25;5042682;28;20729;-67
2021/12/28 10:18:14;;;;;;;17.50;8.85;;;;;;;14.43;71.78;96301.00;5044323;28;20136;-67
2021/12/28 10:20:53;;;;;;;20.40;11.30;;;;;;;14.17;72.15;96298.81;5044314;28;20443;-63
2021/12/28 10:23:25;;;;;;;16.10;9.88;;;;;;;13.95;72.88;96312.13;5037523;28;20063;-65
2021/12/28 10:26:01;;;;;;;30.40;15.68;;;;;;;13.97;74.51;96325.63;5043984;28;20049;-69
2021/12/28 10:28:35;;;;;;;24.05;12.57;;;;;;;13.92;75.82;96335.22;5032108;28;20057;-73
2021/12/28 10:31:03;;;;;;;;;;;;;;;14.06;76.65;96326.75;5043544;28;20055;-66
2021/12/28 10:33:34;;;;;;;19.90;8.70;;;;;;;14.01;74.74;96324.41;5049281;28;19931;-61
2021/12/28 10:36:06;;;;;;;10.70;6.10;;;;;;;13.16;74.08;96232.41;5051987;28;20065;-64
2021/12/28 10:38:39;;;;;;;12.40;4.70;;;;;;;14.09;73.69;96322.34;5054063;28;20075;-67
2021/12/28 10:41:09;;;;;;;12.32;7.05;;;;;;;13.74;73.99;96208.53;5057914;28;20048;-68
2021/12/28 10:43:43;;;;;;;11.63;7.13;;;;;;;13.76;74.02;96222.81;5058770;28;20057;-68
2021/12/28 10:46:14;;;;;;;9.65;6.22;;;;;;;14.14;73.41;96277.34;5056483;28;20155;-71
2021/12/28 10:48:46;;;;;;;15.40;8.88;;;;;;;14.20;73.64;96270.13;5061377;28;20515;-70
2021/12/28 10:51:18;;;;;;;10.73;5.07;;;;;;;14.07;73.41;96308.84;5049356;28;20055;-67
2021/12/28 10:56:41;;;;;;;7.53;3.85;;;;;;;13.41;77.35;96312.91;5064668;28;20135;-70
2021/12/28 10:59:13;;;;;;;11.77;7.97;;;;;;;13.80;77.55;96304.31;5046700;28;20056;-72
2021/12/28 11:01:42;;;;;;;;;;;;;;;14.09;77.54;96300.06;5043511;28;20144;-70
2021/12/28 11:04:12;;;;;;;12.05;7.20;;;;;;;14.19;76.63;96308.34;5027210;28;20274;-69
2021/12/28 11:06:41;;;;;;;9.75;5.13;;;;;;;13.75;75.60;96221.22;5027530;28;20048;-70
2021/12/28 11:09:19;;;;;;;6.90;4.03;;;;;;;14.09;73.98;96247.97;5045705;28;20044;-65
2021/12/28 11:11:48;;;;;;;22.33;12.57;;;;;;;14.10;74.66;96255.09;5033887;28;20144;-69
2021/12/28 11:14:18;;;;;;;11.25;6.05;;;;;;;13.20;74.76;96130.25;5050694;28;20055;-74
2021/12/28 11:16:55;;;;;;;15.13;8.77;;;;;;;14.01;75.12;96234.50;5054021;28;20061;-67
2021/12/28 11:19:25;;;;;;;23.00;13.00;;;;;;;14.51;75.07;96299.72;5056778;28;20049;-68
2021/12/28 11:21:55;;;;;;;23.63;12.07;;;;;;;13.64;74.04;96216.53;5056610;28;20140;-69
2021/12/28 11:24:29;;;;;;;18.50;10.88;;;;;;;14.01;74.50;96213.03;5031426;28;20048;-67